Time;durP1;ratioP1;P1;durP2;ratioP2;P2;SDS_P1;SDS_P2;PMS_P1;PMS_P2;Temp;Humidity;BMP_temperature;BMP_pressure;BME280_temperature;BME280_humidity;BME280_pressure;Samples;Min_cycle;Max_cycle;Signal;HPM_P1;HPM_P2
2023/01/18 00:00:07;;;;;;;4.32;0.60;;;1.00;99.90;;;;;;5058958;28;20044;-80
2023/01/18 00:02:53;;;;;;;4.32;0.95;;;1.10;99.90;;;;;;5039185;28;20091;-80
2023/01/18 00:05:40;;;;;;;2.58;0.80;;;1.10;99.90;;;;;;5039103;28;20091;-80
2023/01/18 00:08:28;;;;;;;5.00;1.08;;;1.10;99.90;;;;;;5053983;28;20489;-82
2023/01/18 00:11:15;;;;;;;4.40;0.57;;;1.10;99.90;;;;;;5053997;28;20382;-79
2023/01/18 00:14:01;;;;;;;6.88;1.17;;;1.10;99.90;;;;;;5054597;28;20041;-79
2023/01/18 00:16:48;;;;;;;4.03;0.68;;;1.10;99.90;;;;;;5052244;28;20106;-81
2023/01/18 00:19:34;;;;;;;7.65;0.95;;;1.10;99.90;;;;;;5053733;28;20051;-82
2023/01/18 00:22:21;;;;;;;3.33;0.88;;;1.10;99.90;;;;;;5052636;28;20052;-83
2023/01/18 00:25:09;;;;;;;3.60;0.70;;;1.10;99.90;;;;;;5034706;28;20048;-80
2023/01/18 00:27:56;;;;;;;3.33;0.63;;;1.00;99.90;;;;;;5056589;28;20045;-80
2023/01/18 00:30:42;;;;;;;3.13;0.70;;;1.00;99.90;;;;;;5054007;28;20044;-83
2023/01/18 00:33:28;;;;;;;2.85;1.73;;;0.90;99.90;;;;;;5035538;28;20092;-80
2023/01/18 00:36:15;;;;;;;3.47;0.73;;;0.90;99.90;;;;;;5038294;28;20103;-82
2023/01/18 00:39:01;;;;;;;6.22;0.73;;;0.90;99.90;;;;;;5053524;28;20052;-82
2023/01/18 00:44:52;;;;;;;4.00;0.88;;;1.00;99.90;;;;;;5041893;28;20512;-82
2023/01/18 00:47:38;;;;;;;5.43;0.88;;;1.00;99.90;;;;;;5053660;28;20464;-80
2023/01/18 00:50:24;;;;;;;2.75;0.90;;;1.00;99.90;;;;;;5044657;28;20079;-80
2023/01/18 00:53:10;;;;;;;5.63;1.73;;;1.00;99.90;;;;;;5058731;28;20053;-80
2023/01/18 00:55:56;;;;;;;4.05;1.15;;;0.90;99.90;;;;;;5053504;28;20144;-80
2023/01/18 00:58:43;;;;;;;3.53;0.70;;;0.90;99.90;;;;;;5038299;28;20049;-80
2023/01/18 01:01:29;;;;;;;6.15;1.10;;;0.80;99.90;;;;;;5035475;28;20048;-83
2023/01/18 01:07:20;;;;;;;10.43;2.90;;;0.80;99.90;;;;;;5051561;28;20067;-80
2023/01/18 01:10:07;;;;;;;3.55;1.40;;;0.80;99.90;;;;;;5053554;28;20049;-81
2023/01/18 01:28:16;;;;;;;6.13;1.25;;;0.50;99.90;;;;;;5051654;28;20549;-79
2023/01/18 01:31:05;;;;;;;5.20;2.22;;;0.50;99.90;;;;;;5053351;28;20049;-80
2023/01/18 01:33:51;;;;;;;7.72;1.27;;;0.40;99.90;;;;;;5051230;28;20069;-79
2023/01/18 01:36:37;;;;;;;6.57;1.98;;;0.40;99.90;;;;;;5034472;28;20127;-80
2023/01/18 01:39:24;;;;;;;7.45;1.45;;;0.30;99.90;;;;;;5052208;28;20091;-80
2023/01/18 01:42:13;;;;;;;5.22;1.50;;;0.20;99.90;;;;;;5033572;28;20479;-79
2023/01/18 01:44:59;;;;;;;5.65;1.35;;;0.10;99.90;;;;;;5051465;28;20413;-79
2023/01/18 01:47:46;;;;;;;8.52;1.70;;;0.10;99.90;;;;;;5055352;28;20110;-80
2023/01/18 01:50:37;;;;;;;7.90;2.20;;;0.10;99.90;;;;;;5036928;28;20091;-79
2023/01/18 01:53:23;;;;;;;7.00;1.58;;;0.10;99.90;;;;;;5051069;28;20064;-80
2023/01/18 01:56:10;;;;;;;3.60;1.48;;;0.10;99.90;;;;;;5035960;28;20048;-79
2023/01/18 01:58:58;;;;;;;6.80;1.60;;;0.20;99.90;;;;;;5033685;28;20178;-82
2023/01/18 02:01:45;;;;;;;4.43;1.88;;;0.10;99.90;;;;;;5051468;28;20694;-80
2023/01/18 02:04:32;;;;;;;5.25;1.58;;;0.10;99.90;;;;;;5034261;28;20417;-82
2023/01/18 02:07:22;;;;;;;5.20;1.83;;;0.10;99.90;;;;;;5051436;28;20053;-84
2023/01/18 02:10:09;;;;;;;5.70;1.52;;;0.10;99.90;;;;;;5058864;28;20056;-83
2023/01/18 02:12:57;;;;;;;4.90;1.60;;;0.10;99.90;;;;;;5053703;28;20132;-81
2023/01/18 02:15:47;;;;;;;6.45;1.20;;;0.20;99.90;;;;;;5052292;28;20049;-82
2023/01/18 02:18:53;;;;;;;6.15;1.80;;;0.20;99.90;;;;;;5051108;28;20144;-83
2023/01/18 02:21:52;;;;;;;4.45;1.25;;;0.30;99.90;;;;;;5051779;28;20064;-80
2023/01/18 02:25:05;;;;;;;9.57;1.83;;;0.40;99.90;;;;;;5051198;28;20485;-79
2023/01/18 02:28:16;;;;;;;4.45;1.52;;;0.40;99.90;;;;;;5034190;28;20056;-79
2023/01/18 02:31:25;;;;;;;5.10;1.50;;;0.40;99.90;;;;;;5020047;28;20048;-79
2023/01/18 02:34:39;;;;;;;6.03;1.77;;;0.50;99.90;;;;;;5051020;28;20049;-80
2023/01/18 02:37:42;;;;;;;5.93;1.50;;;0.50;99.90;;;;;;5051858;28;20048;-78
2023/01/18 02:40:55;;;;;;;5.28;1.52;;;0.50;99.90;;;;;;5053857;28;20053;-81
2023/01/18 02:46:48;;;;;;;10.07;1.40;;;0.60;99.90;;;;;;5050518;28;20052;-80
2023/01/18 02:49:34;;;;;;;5.65;1.38;;;0.60;99.90;;;;;;5050177;28;20166;-80
2023/01/18 02:52:53;;;;;;;6.20;1.50;;;0.60;99.90;;;;;;5051346;28;20124;-80
2023/01/18 02:55:52;;;;;;;4.68;1.30;;;0.60;99.90;;;;;;5002191;28;20170;-80
2023/01/18 02:59:05;;;;;;;8.93;2.28;;;0.50;99.90;;;;;;5051184;28;20485;-79
2023/01/18 03:01:54;;;;;;;5.05;1.40;;;0.50;99.90;;;;;;5037455;28;20131;-84
2023/01/18 03:04:53;;;;;;;4.53;1.50;;;0.50;99.90;;;;;;5050247;28;20056;-80
2023/01/18 03:07:48;;;;;;;4.03;2.03;;;0.50;99.90;;;;;;5050997;28;20421;-82
2023/01/18 03:10:46;;;;;;;4.53;1.35;;;0.40;99.90;;;;;;5050787;28;20049;-79
2023/01/18 03:13:56;;;;;;;8.77;2.55;;;0.40;99.90;;;;;;5034093;28;20524;-80
2023/01/18 03:17:04;;;;;;;6.63;2.17;;;0.40;99.90;;;;;;5019304;28;20056;-79
2023/01/18 03:20:08;;;;;;;6.93;2.00;;;0.40;99.90;;;;;;5048993;28;20045;-80
2023/01/18 03:26:10;;;;;;;5.43;1.50;;;0.50;99.90;;;;;;5050095;28;20041;-80
2023/01/18 03:35:25;;;;;;;;;;;0.40;99.90;;;;;;5051406;28;20444;-85
2023/01/18 03:38:13;;;;;;;7.00;1.60;;;0.40;99.90;;;;;;5056340;28;19921;-78
2023/01/18 03:41:00;;;;;;;5.95;1.63;;;0.40;99.90;;;;;;5032843;28;20056;-80
2023/01/18 03:43:49;;;;;;;5.28;1.48;;;0.40;99.90;;;;;;5050855;28;20049;-84
2023/01/18 03:46:35;;;;;;;5.97;2.15;;;0.40;99.90;;;;;;5035620;28;20495;-82
2023/01/18 03:49:23;;;;;;;9.00;2.13;;;0.40;99.90;;;;;;5050481;28;20088;-81
2023/01/18 03:52:15;;;;;;;5.78;1.80;;;0.40;99.90;;;;;;5050520;28;20565;-79
2023/01/18 03:55:15;;;;;;;9.15;2.15;;;0.40;99.90;;;;;;5050355;28;20049;-81
2023/01/18 03:58:08;;;;;;;8.43;1.73;;;0.40;99.90;;;;;;5049220;28;20060;-81
2023/01/18 04:00:54;;;;;;;7.97;1.90;;;0.50;99.90;;;;;;5051389;28;20111;-84
2023/01/18 04:03:40;;;;;;;4.43;1.90;;;0.50;99.90;;;;;;5057972;28;20060;-81
2023/01/18 04:06:28;;;;;;;5.85;2.05;;;0.60;99.90;;;;;;5035758;28;20053;-80
2023/01/18 04:09:14;;;;;;;5.57;2.00;;;0.60;99.90;;;;;;5051204;28;20049;-79
2023/01/18 04:12:00;;;;;;;4.90;2.22;;;0.60;99.90;;;;;;5050936;28;20049;-79
2023/01/18 04:14:47;;;;;;;9.43;2.92;;;0.70;99.90;;;;;;5049670;28;20497;-80
2023/01/18 04:17:33;;;;;;;8.50;2.13;;;0.70;99.90;;;;;;5049085;28;20048;-79
2023/01/18 04:20:19;;;;;;;4.88;1.92;;;0.80;99.90;;;;;;5032169;28;20059;-79
2023/01/18 04:23:05;;;;;;;4.03;1.60;;;0.80;99.90;;;;;;5018527;28;20067;-80
2023/01/18 04:25:51;;;;;;;8.50;2.20;;;0.80;99.90;;;;;;5051220;28;20048;-82
2023/01/18 04:28:37;;;;;;;8.57;2.00;;;0.80;99.90;;;;;;5037387;28;20064;-78
2023/01/18 04:31:23;;;;;;;6.88;2.40;;;0.80;99.90;;;;;;5034436;28;20140;-81
2023/01/18 04:34:09;;;;;;;10.38;2.70;;;0.90;99.90;;;;;;5050330;28;20118;-78
2023/01/18 04:36:56;;;;;;;9.88;2.70;;;0.90;99.90;;;;;;5048719;28;20077;-78
2023/01/18 04:39:42;;;;;;;9.60;2.75;;;0.90;99.90;;;;;;5048815;28;20508;-78
2023/01/18 04:42:29;;;;;;;6.85;2.55;;;0.90;99.90;;;;;;5032068;28;20057;-79
2023/01/18 04:45:17;;;;;;;9.52;2.50;;;0.90;99.90;;;;;;5035081;28;20136;-81
2023/01/18 04:48:03;;;;;;;5.93;2.63;;;0.90;99.90;;;;;;5053734;28;20088;-83
2023/01/18 04:50:50;;;;;;;11.25;2.85;;;0.80;99.90;;;;;;5052415;28;20041;-83
2023/01/18 04:53:36;;;;;;;5.63;2.72;;;0.80;99.90;;;;;;5035608;28;20064;-82
2023/01/18 04:56:22;;;;;;;7.63;2.63;;;0.80;99.90;;;;;;5059062;28;20060;-79
2023/01/18 04:59:15;;;;;;;11.10;2.92;;;0.80;99.90;;;;;;5025360;28;20059;-79
2023/01/18 05:02:01;;;;;;;11.75;3.95;;;0.80;99.90;;;;;;5053644;28;20110;-79
2023/01/18 05:04:47;;;;;;;10.20;3.85;;;0.70;99.90;;;;;;5020654;28;20049;-80
2023/01/18 05:07:33;;;;;;;8.63;2.78;;;0.70;99.90;;;;;;5034988;28;20094;-78
2023/01/18 05:10:19;;;;;;;8.40;3.00;;;0.50;99.90;;;;;;5037952;28;20045;-82
2023/01/18 05:13:05;;;;;;;14.45;3.95;;;0.50;99.90;;;;;;5053294;28;20056;-78
2023/01/18 05:15:51;;;;;;;7.82;3.28;;;0.40;99.90;;;;;;5037143;28;20638;-77
2023/01/18 05:18:37;;;;;;;9.40;3.25;;;0.30;99.90;;;;;;5051923;28;20052;-78
2023/01/18 05:21:23;;;;;;;12.40;4.28;;;0.30;99.90;;;;;;5053322;28;20092;-77
2023/01/18 05:24:09;;;;;;;10.05;3.25;;;0.30;99.90;;;;;;5056638;28;20568;-77
2023/01/18 05:26:56;;;;;;;10.55;3.83;;;0.30;99.90;;;;;;5052488;28;20053;-80
2023/01/18 05:29:42;;;;;;;10.13;4.10;;;0.40;99.90;;;;;;5052659;28;20397;-80
2023/01/18 05:32:29;;;;;;;8.38;3.40;;;0.40;99.90;;;;;;5052066;28;20504;-79
2023/01/18 05:35:15;;;;;;;10.63;3.80;;;0.50;99.90;;;;;;5052791;28;20110;-82
2023/01/18 05:38:01;;;;;;;10.07;3.47;;;0.60;99.90;;;;;;5033996;28;20056;-79
2023/01/18 05:40:51;;;;;;;15.75;4.70;;;0.50;99.90;;;;;;5052611;28;20044;-81
2023/01/18 05:43:37;;;;;;;9.93;3.78;;;0.50;99.90;;;;;;5051590;28;20056;-82
2023/01/18 05:46:23;;;;;;;11.68;4.00;;;0.60;99.90;;;;;;5045928;28;20049;-81
2023/01/18 05:49:09;;;;;;;10.80;3.60;;;0.60;99.90;;;;;;5052860;28;20052;-78
2023/01/18 05:51:55;;;;;;;11.88;4.88;;;0.60;99.90;;;;;;5051149;28;20049;-78
2023/01/18 05:54:41;;;;;;;10.32;4.88;;;0.60;99.90;;;;;;5052036;28;20136;-78
2023/01/18 05:57:27;;;;;;;15.82;4.70;;;0.60;99.90;;;;;;5052401;28;20045;-79
2023/01/18 06:00:13;;;;;;;10.65;4.90;;;0.50;99.90;;;;;;5052669;28;20099;-78
2023/01/18 06:03:01;;;;;;;9.98;4.60;;;0.50;99.90;;;;;;5034089;28;20057;-79
2023/01/18 06:05:50;;;;;;;12.85;5.75;;;0.50;99.90;;;;;;5050940;28;20171;-79
2023/01/18 06:08:36;;;;;;;13.65;4.72;;;0.50;99.90;;;;;;5052234;28;20049;-81
2023/01/18 06:11:22;;;;;;;14.27;4.55;;;0.50;99.90;;;;;;5021301;28;20161;-78
2023/01/18 06:14:08;;;;;;;9.93;4.93;;;0.60;99.90;;;;;;5052469;28;20401;-82
2023/01/18 06:16:54;;;;;;;7.85;4.25;;;0.60;99.90;;;;;;5058701;28;20493;-81
2023/01/18 06:19:40;;;;;;;13.73;5.22;;;0.70;99.90;;;;;;5051372;28;20044;-79
2023/01/18 06:22:26;;;;;;;9.68;4.35;;;0.70;99.90;;;;;;5051115;28;20052;-79
2023/01/18 06:25:12;;;;;;;12.55;4.28;;;0.70;99.90;;;;;;5035690;28;20060;-79
2023/01/18 06:27:59;;;;;;;10.98;4.07;;;0.80;99.90;;;;;;5033559;28;20145;-79
2023/01/18 06:30:46;;;;;;;12.70;4.28;;;0.80;99.90;;;;;;5051921;28;20045;-80
2023/01/18 06:33:33;;;;;;;12.75;4.28;;;0.80;99.90;;;;;;5050133;28;20106;-80
2023/01/18 06:36:19;;;;;;;11.75;3.85;;;0.80;99.90;;;;;;5053322;28;20060;-80
2023/01/18 06:39:06;;;;;;;11.18;3.55;;;0.90;99.90;;;;;;5060798;28;20048;-80
2023/01/18 06:41:52;;;;;;;11.85;3.65;;;0.80;99.90;;;;;;5043075;28;20053;-78
2023/01/18 06:44:38;;;;;;;10.27;3.65;;;0.80;99.90;;;;;;5029531;28;20409;-78
2023/01/18 06:47:24;;;;;;;8.35;3.35;;;0.80;99.90;;;;;;5053139;28;20076;-79
2023/01/18 06:50:11;;;;;;;10.77;3.13;;;0.80;99.90;;;;;;5038328;28;20520;-78
2023/01/18 06:52:57;;;;;;;10.90;4.28;;;0.70;99.90;;;;;;5055742;28;20052;-78
2023/01/18 06:55:43;;;;;;;10.20;3.95;;;0.60;99.90;;;;;;5053683;28;20044;-78
2023/01/18 06:58:33;;;;;;;10.57;3.50;;;0.60;99.90;;;;;;5038524;28;20052;-80
2023/01/18 07:01:19;;;;;;;8.40;3.83;;;0.50;99.90;;;;;;5050819;28;20469;-78
2023/01/18 07:04:05;;;;;;;7.78;3.42;;;0.50;99.90;;;;;;5050357;28;20052;-78
2023/01/18 07:06:51;;;;;;;22.08;6.85;;;0.60;99.90;;;;;;5050471;28;20053;-81
2023/01/18 07:09:37;;;;;;;12.35;4.47;;;0.60;99.90;;;;;;5037532;28;20099;-81
2023/01/18 07:12:23;;;;;;;10.95;3.80;;;0.60;99.90;;;;;;5041791;28;20049;-79
2023/01/18 07:15:12;;;;;;;11.13;3.60;;;0.70;99.90;;;;;;5050178;28;20140;-78
2023/01/18 07:17:58;;;;;;;8.55;3.35;;;0.60;99.90;;;;;;5050181;28;20056;-81
2023/01/18 07:20:44;;;;;;;9.07;3.55;;;0.70;99.90;;;;;;5032379;28;20152;-76
2023/01/18 07:23:30;;;;;;;10.68;3.55;;;0.80;99.90;;;;;;5050316;28;20114;-77
2023/01/18 07:26:16;;;;;;;11.18;3.78;;;0.80;99.90;;;;;;5049599;28;20080;-79
2023/01/18 07:29:03;;;;;;;9.27;3.35;;;0.80;99.90;;;;;;5050545;28;20516;-80
2023/01/18 07:31:49;;;;;;;7.22;3.25;;;0.80;99.90;;;;;;5033141;28;20052;-79
2023/01/18 07:34:35;;;;;;;18.23;4.47;;;0.70;99.90;;;;;;5052409;28;20079;-82
2023/01/18 07:37:21;;;;;;;9.45;3.42;;;0.70;99.90;;;;;;5038732;28;20049;-79
2023/01/18 07:40:09;;;;;;;8.70;3.58;;;0.60;99.90;;;;;;5060073;28;20061;-79
2023/01/18 07:42:56;;;;;;;12.30;4.00;;;0.50;99.90;;;;;;5037538;28;20060;-81
2023/01/18 07:45:50;;;;;;;8.13;4.18;;;0.40;99.90;;;;;;5051722;28;20045;-79
2023/01/18 07:48:36;;;;;;;10.48;3.88;;;0.40;99.90;;;;;;5037080;28;20067;-81
2023/01/18 07:51:23;;;;;;;10.77;4.47;;;0.40;99.90;;;;;;5050420;28;20053;-81
2023/01/18 07:54:09;;;;;;;11.30;4.47;;;0.30;99.90;;;;;;5031100;28;20067;-81
2023/01/18 07:56:55;;;;;;;9.05;4.53;;;0.30;99.90;;;;;;5051954;28;20044;-79
2023/01/18 07:59:42;;;;;;;10.45;5.40;;;0.30;99.90;;;;;;5049807;28;20049;-82
2023/01/18 08:02:28;;;;;;;10.50;4.03;;;0.40;99.90;;;;;;5017087;28;20057;-80
2023/01/18 08:05:16;;;;;;;8.32;4.20;;;0.40;99.90;;;;;;5050140;28;20045;-80
2023/01/18 08:08:03;;;;;;;10.27;4.90;;;0.50;99.90;;;;;;5036971;28;20056;-78
2023/01/18 08:10:57;;;;;;;17.20;5.65;;;0.60;99.90;;;;;;5060975;28;20053;-82
2023/01/18 08:13:43;;;;;;;13.38;5.97;;;0.60;99.90;;;;;;5050281;28;20057;-79
2023/01/18 08:16:29;;;;;;;12.15;5.20;;;0.70;99.90;;;;;;5032295;28;20049;-83
2023/01/18 08:19:16;;;;;;;10.18;4.90;;;0.80;99.90;;;;;;5053223;28;20111;-77
2023/01/18 08:22:02;;;;;;;12.18;5.18;;;0.80;99.90;;;;;;5055030;28;20052;-83
2023/01/18 08:24:48;;;;;;;13.30;6.07;;;0.80;99.90;;;;;;5053810;28;20049;-80
2023/01/18 08:27:34;;;;;;;14.25;6.50;;;0.80;99.90;;;;;;5053893;28;20048;-81
2023/01/18 08:30:20;;;;;;;12.55;5.00;;;0.90;99.90;;;;;;5054004;28;20045;-79
2023/01/18 08:33:06;;;;;;;11.02;5.55;;;1.00;99.90;;;;;;5036169;28;20067;-81
2023/01/18 08:35:53;;;;;;;11.95;5.45;;;1.10;99.90;;;;;;5034743;28;20136;-80
2023/01/18 08:38:39;;;;;;;11.60;5.70;;;1.10;99.90;;;;;;5060967;28;20048;-80
2023/01/18 08:41:29;;;;;;;11.95;5.57;;;1.10;99.90;;;;;;5055705;28;20045;-80
2023/01/18 08:44:16;;;;;;;12.05;5.32;;;1.20;99.90;;;;;;5021743;28;20477;-78
2023/01/18 08:47:02;;;;;;;13.73;5.63;;;1.20;99.90;;;;;;5054182;28;20378;-78
2023/01/18 08:49:48;;;;;;;15.85;6.22;;;1.30;99.90;;;;;;5053608;28;20051;-81
2023/01/18 08:52:35;;;;;;;8.70;5.03;;;1.40;99.90;;;;;;5053193;28;20088;-84
2023/01/18 08:55:21;;;;;;;12.32;5.85;;;1.50;99.90;;;;;;5039439;28;20413;-85
2023/01/18 08:58:07;;;;;;;15.57;6.05;;;1.60;99.90;;;;;;5062944;28;20413;-83
2023/01/18 09:00:53;;;;;;;11.60;4.95;;;1.70;99.90;;;;;;5062725;28;20110;-81
2023/01/18 09:03:40;;;;;;;12.98;5.15;;;1.80;99.90;;;;;;5037475;28;20143;-78
2023/01/18 09:06:30;;;;;;;9.45;4.28;;;1.90;99.90;;;;;;5049643;28;20092;-83
2023/01/18 09:09:17;;;;;;;12.90;5.03;;;2.00;99.90;;;;;;5033767;28;20045;-83
2023/01/18 09:12:03;;;;;;;12.07;4.70;;;2.10;99.90;;;;;;5052907;28;20049;-80
2023/01/18 09:14:49;;;;;;;10.15;5.03;;;2.20;99.90;;;;;;5052546;28;20523;-81
2023/01/18 09:17:35;;;;;;;12.05;4.75;;;2.20;99.90;;;;;;5052324;28;20045;-81
2023/01/18 09:20:21;;;;;;;10.13;3.80;;;2.30;99.90;;;;;;5052558;28;20226;-82
2023/01/18 09:23:09;;;;;;;10.07;4.55;;;2.40;99.90;;;;;;5053157;28;20052;-84
2023/01/18 09:26:04;;;;;;;10.15;3.80;;;2.50;99.90;;;;;;5052980;28;20519;-83
2023/01/18 09:28:52;;;;;;;9.40;4.18;;;2.70;99.90;;;;;;5057047;28;20095;-81
2023/01/18 09:31:38;;;;;;;16.02;5.45;;;2.70;99.90;;;;;;5055611;28;20052;-80
2023/01/18 09:34:24;;;;;;;8.85;4.18;;;2.80;99.90;;;;;;5035383;28;20052;-84
2023/01/18 09:37:10;;;;;;;10.85;5.18;;;2.90;99.90;;;;;;5053061;28;20057;-81
2023/01/18 09:39:57;;;;;;;10.32;4.60;;;3.00;99.90;;;;;;5034698;28;20053;-81
2023/01/18 09:42:44;;;;;;;8.20;4.32;;;3.10;99.90;;;;;;5052832;28;20095;-83
2023/01/18 09:45:34;;;;;;;10.23;3.80;;;3.10;99.90;;;;;;5052586;28;20134;-80
2023/01/18 09:48:36;;;;;;;10.07;4.35;;;3.20;99.90;;;;;;5051657;28;20509;-80
2023/01/18 09:51:29;;;;;;;17.33;5.07;;;3.20;99.90;;;;;;5052426;28;20057;-79
2023/01/18 09:54:38;;;;;;;11.52;4.28;;;3.30;99.90;;;;;;5051633;28;20044;-82
2023/01/18 09:57:52;;;;;;;11.73;4.15;;;3.40;99.90;;;;;;5051605;28;20049;-83
2023/01/18 10:00:45;;;;;;;10.77;5.20;;;3.50;99.90;;;;;;5052579;28;20045;-80
2023/01/18 10:03:40;;;;;;;10.60;3.75;;;3.60;99.90;;;;;;5051720;28;20053;-81
2023/01/18 10:06:42;;;;;;;8.32;4.93;;;3.70;99.90;;;;;;5022506;28;20049;-80
2023/01/18 10:09:51;;;;;;;12.35;4.22;;;3.90;99.90;;;;;;5055440;28;20648;-81
2023/01/18 10:12:43;;;;;;;9.88;4.60;;;4.00;99.90;;;;;;5047871;28;20049;-81
2023/01/18 10:15:33;;;;;;;9.82;4.05;;;4.00;99.90;;;;;;5053025;28;20048;-81
2023/01/18 10:18:19;;;;;;;8.65;4.60;;;4.10;99.90;;;;;;5051429;28;20048;-81
2023/01/18 10:21:06;;;;;;;10.27;3.42;;;4.20;99.90;;;;;;5024711;28;20045;-81
2023/01/18 10:24:31;;;;;;;8.50;3.78;;;4.40;99.90;;;;;;5051841;28;20168;-82
2023/01/18 10:27:37;;;;;;;7.70;3.47;;;4.50;99.90;;;;;;5033916;28;20489;-82
2023/01/18 10:30:54;;;;;;;7.28;3.35;;;4.60;99.90;;;;;;5033234;28;20140;-83
2023/01/18 10:33:43;;;;;;;6.90;3.28;;;4.90;99.90;;;;;;5034120;28;20075;-82
2023/01/18 10:36:38;;;;;;;9.60;3.35;;;4.90;99.90;;;;;;5051115;28;20630;-80
2023/01/18 10:39:24;;;;;;;8.70;3.40;;;5.30;99.90;;;;;;5051528;28;20048;-81
2023/01/18 10:42:22;;;;;;;7.45;2.85;;;5.60;99.90;;;;;;5037377;28;20521;-82
2023/01/18 10:45:20;;;;;;;7.13;3.40;;;5.60;99.90;;;;;;5051811;28;20516;-85
2023/01/18 10:48:26;;;;;;;9.07;3.28;;;5.60;99.90;;;;;;5058339;28;20048;-83
2023/01/18 10:51:34;;;;;;;12.38;3.38;;;5.90;99.90;;;;;;5051172;28;20139;-82
2023/01/18 10:54:24;;;;;;;10.15;3.70;;;5.90;99.90;;;;;;5051507;28;20581;-82
2023/01/18 10:57:20;;;;;;;9.75;3.80;;;5.90;99.90;;;;;;5034034;28;20056;-82
2023/01/18 11:00:35;;;;;;;10.95;3.10;;;5.90;99.90;;;;;;5037103;28;20045;-81
2023/01/18 11:03:22;;;;;;;12.57;3.95;;;5.90;99.90;;;;;;5031922;28;20067;-82
2023/01/18 11:06:09;;;;;;;7.70;2.67;;;6.10;99.90;;;;;;5050850;28;20049;-80
2023/01/18 11:08:55;;;;;;;9.32;3.25;;;6.40;99.90;;;;;;5035849;28;20480;-80
2023/01/18 11:14:46;;;;;;;6.18;3.45;;;6.80;99.90;;;;;;5049884;28;20103;-80
2023/01/18 11:17:32;;;;;;;7.72;3.25;;;6.70;99.90;;;;;;5051777;28;20092;-81
2023/01/18 11:20:24;;;;;;;8.82;3.13;;;6.70;99.90;;;;;;5049273;28;20400;-81
2023/01/18 11:23:19;;;;;;;6.20;2.78;;;7.00;99.90;;;;;;5050603;28;20065;-81
2023/01/18 11:26:13;;;;;;;7.80;3.13;;;7.40;99.90;;;;;;5055680;28;20053;-81
2023/01/18 11:29:05;;;;;;;7.28;2.75;;;7.70;99.90;;;;;;5056257;28;20527;-83
2023/01/18 11:31:53;;;;;;;9.07;2.92;;;7.90;99.90;;;;;;5057733;28;20504;-79
2023/01/18 11:34:45;;;;;;;9.52;3.50;;;7.80;99.90;;;;;;5044272;28;20053;-82
2023/01/18 11:37:38;;;;;;;8.43;2.90;;;7.70;99.90;;;;;;5033906;28;20057;-78
2023/01/18 11:40:28;;;;;;;10.45;3.00;;;7.70;99.90;;;;;;5051299;28;20697;-83
2023/01/18 11:43:26;;;;;;;6.80;2.97;;;7.90;99.90;;;;;;5050435;28;20053;-81
2023/01/18 11:46:25;;;;;;;7.60;3.28;;;8.00;99.90;;;;;;5031163;28;20413;-83
2023/01/18 11:49:23;;;;;;;7.38;2.95;;;8.20;99.90;;;;;;5049231;28;20053;-80
2023/01/18 11:52:46;;;;;;;10.15;3.13;;;8.50;99.90;;;;;;5052928;28;20520;-80
2023/01/18 11:55:42;;;;;;;8.95;3.30;;;9.00;99.90;;;;;;5017679;28;20077;-80
2023/01/18 11:58:29;;;;;;;7.88;3.10;;;9.60;99.90;;;;;;5054460;28;20041;-81
2023/01/18 12:01:42;;;;;;;9.80;3.30;;;9.90;98.90;;;;;;5037505;28;20110;-82
2023/01/18 12:05:05;;;;;;;9.45;3.00;;;10.00;99.10;;;;;;5055579;28;20048;-88
2023/01/18 12:08:26;;;;;;;9.38;2.70;;;10.10;98.50;;;;;;5042582;28;20047;-74
2023/01/18 12:11:36;;;;;;;7.68;2.70;;;9.20;99.10;;;;;;5061535;28;20049;-78
2023/01/18 12:14:33;;;;;;;6.28;2.17;;;8.00;99.90;;;;;;5062502;28;20045;-79
2023/01/18 12:17:54;;;;;;;7.30;3.30;;;7.50;99.90;;;;;;5054046;28;20508;-81
2023/01/18 12:21:08;;;;;;;6.60;2.67;;;8.10;99.90;;;;;;5053983;28;20151;-80
2023/01/18 12:24:18;;;;;;;9.15;2.80;;;8.80;99.90;;;;;;5054534;28;20045;-79
2023/01/18 12:27:34;;;;;;;9.27;2.72;;;9.40;99.70;;;;;;5053696;28;20052;-81
2023/01/18 12:30:50;;;;;;;6.78;2.90;;;8.60;99.90;;;;;;5032324;28;20068;-79
2023/01/18 12:33:36;;;;;;;8.77;3.00;;;7.80;99.90;;;;;;5053638;28;20075;-79
2023/01/18 12:36:44;;;;;;;9.02;2.65;;;7.10;99.90;;;;;;5054252;28;20095;-81
2023/01/18 12:40:08;;;;;;;11.95;3.63;;;6.40;99.90;;;;;;5034928;28;20165;-79
2023/01/18 12:43:18;;;;;;;7.40;3.08;;;5.90;99.90;;;;;;5052421;28;20131;-80
2023/01/18 12:46:14;;;;;;;11.70;3.28;;;5.50;99.90;;;;;;5053499;28;20045;-83
2023/01/18 12:49:07;;;;;;;6.30;2.65;;;5.30;99.90;;;;;;5055925;28;20193;-84
2023/01/18 12:51:56;;;;;;;6.03;3.00;;;5.20;99.90;;;;;;5054197;28;20047;-86
2023/01/18 12:54:54;;;;;;;8.95;2.10;;;5.10;99.90;;;;;;5046879;28;20056;-86
2023/01/18 12:57:41;;;;;;;6.78;3.03;;;5.00;99.90;;;;;;5053765;28;20878;-84
2023/01/18 13:00:39;;;;;;;8.32;3.13;;;4.90;99.90;;;;;;5053319;28;20053;-84
2023/01/18 13:03:30;;;;;;;9.55;2.88;;;4.70;99.90;;;;;;5054801;28;20057;-86
2023/01/18 13:06:19;;;;;;;8.02;3.70;;;4.70;99.90;;;;;;5052408;28;20049;-85
2023/01/18 13:09:17;;;;;;;10.48;3.22;;;4.60;99.90;;;;;;5053851;28;20054;-87
2023/01/18 13:12:05;;;;;;;7.13;2.78;;;4.50;99.90;;;;;;5053905;28;20505;-84
2023/01/18 13:15:04;;;;;;;7.75;3.35;;;4.50;99.90;;;;;;5055278;28;20049;-87
2023/01/18 13:17:57;;;;;;;9.52;2.83;;;4.50;99.90;;;;;;5052689;28;20114;-88
2023/01/18 13:21:01;;;;;;;8.98;2.63;;;4.40;99.90;;;;;;5034516;28;20048;-79
2023/01/18 13:24:08;;;;;;;10.40;3.72;;;4.40;99.90;;;;;;5051833;28;20520;-81
2023/01/18 13:27:13;;;;;;;7.55;3.03;;;4.40;99.90;;;;;;5053500;28;20132;-89
2023/01/18 13:30:15;;;;;;;8.52;2.90;;;4.30;99.90;;;;;;5060620;28;20064;-90
2023/01/18 13:33:12;;;;;;;7.43;2.63;;;4.40;99.90;;;;;;5053860;28;20121;-81
2023/01/18 13:36:27;;;;;;;6.82;2.20;;;4.40;99.90;;;;;;5056895;28;20045;-88
2023/01/18 13:39:16;;;;;;;6.47;3.22;;;4.30;99.90;;;;;;5053982;28;20052;-75
2023/01/18 13:42:22;;;;;;;11.52;3.40;;;4.40;99.90;;;;;;5053956;28;20052;-77
2023/01/18 13:45:16;;;;;;;6.05;2.50;;;4.40;99.90;;;;;;5021074;28;20088;-76
2023/01/18 13:48:06;;;;;;;8.65;3.42;;;4.40;99.90;;;;;;5052312;28;20045;-77
2023/01/18 13:50:53;;;;;;;6.43;2.28;;;4.40;99.90;;;;;;5053831;28;20049;-79
2023/01/18 13:53:49;;;;;;;8.57;2.80;;;4.40;99.90;;;;;;5046867;28;20041;-76
2023/01/18 13:56:36;;;;;;;10.50;2.72;;;4.40;99.90;;;;;;5051448;28;20063;-74
2023/01/18 13:59:26;;;;;;;8.90;2.83;;;4.40;99.90;;;;;;5052606;28;20497;-77
2023/01/18 14:02:42;;;;;;;7.07;2.35;;;4.50;99.90;;;;;;5052210;28;20059;-75
2023/01/18 14:05:37;;;;;;;8.73;2.20;;;4.50;99.90;;;;;;5047665;28;20191;-76
2023/01/18 14:08:31;;;;;;;5.43;1.53;;;4.50;99.90;;;;;;5035787;28;20489;-76
2023/01/18 14:11:29;;;;;;;7.00;2.03;;;4.50;99.90;;;;;;5053732;28;20048;-81
2023/01/18 14:14:16;;;;;;;12.02;2.03;;;4.60;99.90;;;;;;5052198;28;20088;-80
2023/01/18 14:17:11;;;;;;;12.57;2.20;;;4.60;99.90;;;;;;5049622;28;20060;-78
2023/01/18 14:20:24;;;;;;;6.67;2.07;;;4.60;99.90;;;;;;5052205;28;20045;-76
2023/01/18 14:23:26;;;;;;;6.93;1.80;;;4.60;99.90;;;;;;5040236;28;20065;-80
2023/01/18 14:26:16;;;;;;;6.38;1.92;;;4.60;99.90;;;;;;5033276;28;20516;-85
2023/01/18 14:29:13;;;;;;;8.88;2.05;;;4.70;99.90;;;;;;5050142;28;20068;-85
2023/01/18 14:32:00;;;;;;;10.05;1.48;;;4.60;99.90;;;;;;5050414;28;20052;-84
2023/01/18 14:34:58;;;;;;;6.53;1.42;;;4.60;99.90;;;;;;5050463;28;20053;-90
2023/01/18 14:37:44;;;;;;;8.43;2.47;;;4.50;99.90;;;;;;5035421;28;20072;-79
2023/01/18 14:40:30;;;;;;;5.95;1.85;;;4.40;99.90;;;;;;5052702;28;20060;-80
2023/01/18 14:43:35;;;;;;;12.02;2.20;;;4.40;99.90;;;;;;5051517;28;20045;-85
2023/01/18 14:46:25;;;;;;;14.03;1.73;;;4.40;99.90;;;;;;5062055;28;20041;-84
2023/01/18 14:49:15;;;;;;;4.68;1.00;;;4.30;99.90;;;;;;5051742;28;20049;-82
2023/01/18 14:52:02;;;;;;;8.95;1.27;;;4.30;99.90;;;;;;5053114;28;20103;-81
2023/01/18 14:54:54;;;;;;;5.63;0.90;;;4.20;99.90;;;;;;5053737;28;20045;-85
2023/01/18 14:57:40;;;;;;;3.72;0.80;;;4.00;99.90;;;;;;5051466;28;20496;-78
2023/01/18 15:00:27;;;;;;;3.72;1.30;;;4.00;99.90;;;;;;5036777;28;20448;-83
2023/01/18 15:03:19;;;;;;;4.07;1.48;;;4.00;99.90;;;;;;5052574;28;20055;-84
2023/01/18 15:06:16;;;;;;;6.78;1.35;;;4.00;99.90;;;;;;5054377;28;20059;-79
2023/01/18 15:09:04;;;;;;;6.78;1.42;;;3.90;99.90;;;;;;5062824;28;20057;-85
2023/01/18 15:11:54;;;;;;;4.97;1.27;;;3.90;99.90;;;;;;5051367;28;20504;-80
2023/01/18 15:14:44;;;;;;;6.90;1.10;;;3.80;99.90;;;;;;5055393;28;20056;-81
2023/01/18 15:17:31;;;;;;;5.82;1.20;;;3.70;99.90;;;;;;5062948;28;20053;-80
2023/01/18 15:20:17;;;;;;;8.35;1.60;;;3.70;99.90;;;;;;5056082;28;20049;-79
2023/01/18 15:23:04;;;;;;;5.60;1.83;;;3.70;99.90;;;;;;5051612;28;20048;-78
2023/01/18 15:25:51;;;;;;;10.45;1.60;;;3.60;99.90;;;;;;5051321;28;20056;-83
2023/01/18 15:28:39;;;;;;;7.47;1.75;;;3.60;99.90;;;;;;5049279;28;20052;-85
2023/01/18 15:31:26;;;;;;;5.72;1.08;;;3.50;99.90;;;;;;5033684;28;20131;-80
2023/01/18 15:34:15;;;;;;;6.65;1.52;;;3.50;99.90;;;;;;5057323;28;20056;-83
2023/01/18 15:37:08;;;;;;;7.22;1.70;;;3.40;99.90;;;;;;5037255;28;20065;-81